createdAt,value
2017-08-03T00:02:05.591Z,71.80
2017-08-03T00:04:33.108Z,71.90
2017-08-03T00:07:00.594Z,72.00
2017-08-03T00:09:31.260Z,72.20
2017-08-03T00:12:01.675Z,72.30
2017-08-03T00:14:32.212Z,72.50
2017-08-03T00:16:59.717Z,72.60
2017-08-03T00:19:27.479Z,72.70
2017-08-03T00:22:00.648Z,72.70
2017-08-03T00:24:30.792Z,73.00
2017-08-03T00:27:02.020Z,72.90
2017-08-03T00:29:30.598Z,73.50
2017-08-03T00:32:02.230Z,73.60
2017-08-03T00:34:29.830Z,73.40
2017-08-03T00:36:57.406Z,73.70
2017-08-03T00:39:31.070Z,73.80
2017-08-03T00:41:58.579Z,73.80
2017-08-03T00:44:26.071Z,73.90
2017-08-03T00:46:53.875Z,74.00
2017-08-03T00:49:21.443Z,73.90
2017-08-03T00:51:52.234Z,74.00
2017-08-03T00:54:20.745Z,73.90
2017-08-03T00:56:49.004Z,74.10
2017-08-03T00:59:16.498Z,74.00
2017-08-03T01:01:43.987Z,74.20
2017-08-03T01:04:20.344Z,74.30
2017-08-03T01:06:47.818Z,74.60
2017-08-03T01:09:15.299Z,74.60
2017-08-03T01:11:50.476Z,74.70
2017-08-03T01:14:17.976Z,74.80
2017-08-03T01:16:51.900Z,74.90
2017-08-03T01:19:19.378Z,75.00
2017-08-03T01:21:53.026Z,75.10
2017-08-03T01:24:30.527Z,75.10
2017-08-03T01:27:01.620Z,75.10
2017-08-03T01:29:29.866Z,75.20
2017-08-03T01:31:57.346Z,75.20
2017-08-03T01:34:30.554Z,75.90
2017-08-03T01:36:58.811Z,75.70
2017-08-03T01:39:26.599Z,75.70
2017-08-03T01:41:54.086Z,75.90
2017-08-03T01:44:31.727Z,75.90
2017-08-03T01:47:11.306Z,75.90
2017-08-03T01:49:38.828Z,75.90
2017-08-03T01:52:12.436Z,76.40
2017-08-03T01:54:41.035Z,76.40
2017-08-03T01:57:08.586Z,76.30
2017-08-03T01:59:36.835Z,76.80
2017-08-03T02:02:04.436Z,76.70
2017-08-03T02:04:31.925Z,76.60
2017-08-03T02:06:59.450Z,76.70
2017-08-03T02:09:27.702Z,76.90
2017-08-03T02:11:55.184Z,76.90
2017-08-03T02:14:30.759Z,77.10
2017-08-03T02:16:58.300Z,77.00
2017-08-03T02:19:25.798Z,77.00
2017-08-03T02:22:00.474Z,77.80
2017-08-03T02:24:28.346Z,77.00
2017-08-03T02:27:01.751Z,77.10
2017-08-03T02:29:29.597Z,77.00
2017-08-03T02:31:57.884Z,77.00
2017-08-03T02:34:31.760Z,76.90
2017-08-03T02:36:59.254Z,77.10
2017-08-03T02:39:32.922Z,77.00
2017-08-03T02:42:00.399Z,77.00
2017-08-03T02:44:28.683Z,77.00
2017-08-03T02:46:56.952Z,77.20
2017-08-03T02:49:24.434Z,77.10
2017-08-03T02:52:01.717Z,77.40
2017-08-03T02:54:30.352Z,77.50
2017-08-03T02:57:01.239Z,77.40
2017-08-03T02:59:28.727Z,77.60
2017-08-03T03:02:02.931Z,77.70
2017-08-03T03:04:30.415Z,77.80
2017-08-03T03:06:57.914Z,77.80
2017-08-03T03:09:26.199Z,77.70
2017-08-03T03:11:53.758Z,77.60
2017-08-03T03:14:22.339Z,77.80
2017-08-03T03:16:50.466Z,77.60
2017-08-03T03:19:20.994Z,77.60
2017-08-03T03:21:51.508Z,77.70
2017-08-03T03:24:21.952Z,77.80
2017-08-03T03:26:49.777Z,78.10
2017-08-03T03:29:17.322Z,78.20
2017-08-03T03:31:51.617Z,78.30
2017-08-03T03:34:19.211Z,78.10
2017-08-03T03:36:52.876Z,78.20
2017-08-03T03:39:20.448Z,78.00
2017-08-03T03:41:48.030Z,78.10
2017-08-03T03:44:15.604Z,78.00
2017-08-03T03:46:50.016Z,78.10
2017-08-03T03:49:20.825Z,77.90
2017-08-03T03:51:48.406Z,78.00
2017-08-03T03:54:22.812Z,77.90
2017-08-03T03:56:50.318Z,77.90
2017-08-03T03:59:20.969Z,78.50
2017-08-03T04:01:48.462Z,78.30
2017-08-03T04:04:16.715Z,78.10
2017-08-03T04:06:44.212Z,77.90
2017-08-03T04:09:20.063Z,78.10
2017-08-03T04:11:48.647Z,78.00
2017-08-03T04:14:16.935Z,78.10
2017-08-03T04:16:51.307Z,78.00
2017-08-03T04:19:18.794Z,77.90
2017-08-03T04:21:46.376Z,77.80
2017-08-03T04:24:20.879Z,77.80
2017-08-03T04:26:48.411Z,77.90
2017-08-03T04:29:22.376Z,78.10
2017-08-03T04:31:49.865Z,78.40
2017-08-03T04:34:20.551Z,78.70
2017-08-03T04:36:48.078Z,78.50
2017-08-03T04:39:21.521Z,78.70
2017-08-03T04:41:50.359Z,79.10
2017-08-03T04:44:20.982Z,79.00
2017-08-03T04:46:48.492Z,79.40
2017-08-03T04:49:22.011Z,79.70
2017-08-03T04:51:49.864Z,80.00
2017-08-03T04:54:17.352Z,80.30
2017-08-03T04:56:52.259Z,80.40
2017-08-03T04:59:20.773Z,80.30
2017-08-03T05:01:48.341Z,80.20
2017-08-03T05:04:18.581Z,80.20
2017-08-03T05:06:46.094Z,80.10
2017-08-03T05:09:20.771Z,80.00
2017-08-03T05:11:49.013Z,80.30
2017-08-03T05:14:23.008Z,80.10
2017-08-03T05:17:00.271Z,80.00
2017-08-03T05:19:28.048Z,80.80
2017-08-03T05:21:55.532Z,80.10
2017-08-03T05:24:23.006Z,80.10
2017-08-03T05:27:00.828Z,79.90
2017-08-03T05:29:28.310Z,79.60
2017-08-03T05:32:02.160Z,79.80
2017-08-03T05:34:29.638Z,80.00
2017-08-03T05:36:57.134Z,79.80
2017-08-03T05:39:24.632Z,80.60
2017-08-03T05:42:00.224Z,79.70
2017-08-03T05:44:31.064Z,79.50
2017-08-03T05:47:01.486Z,79.20
2017-08-03T05:49:32.321Z,78.80
2017-08-03T05:52:01.022Z,78.50
2017-08-03T05:54:28.562Z,78.50
2017-08-03T05:56:56.073Z,78.40
2017-08-03T05:59:23.580Z,78.60
2017-08-03T06:01:51.349Z,78.70
2017-08-03T06:04:21.983Z,78.40
2017-08-03T06:06:50.471Z,78.20
2017-08-03T06:09:18.348Z,78.10
2017-08-03T06:11:45.844Z,77.90
2017-08-03T06:14:13.318Z,77.60
2017-08-03T06:16:50.615Z,77.50
2017-08-03T06:19:18.095Z,77.40
2017-08-03T06:21:52.145Z,77.40
2017-08-03T06:24:19.633Z,77.20
2017-08-03T06:26:53.245Z,77.00
2017-08-03T06:29:20.733Z,77.00
2017-08-03T06:31:48.215Z,76.80
2017-08-03T06:34:21.911Z,76.40
2017-08-03T06:36:49.401Z,76.30
2017-08-03T06:39:16.904Z,76.20
2017-08-03T06:41:50.392Z,76.70
2017-08-03T06:44:18.256Z,75.80
2017-08-03T06:46:52.481Z,75.30
2017-08-03T06:49:20.248Z,75.20
2017-08-03T06:51:51.108Z,75.00
2017-08-03T06:54:18.588Z,75.20
2017-08-03T06:56:49.634Z,75.20
2017-08-03T06:59:17.124Z,74.90
2017-08-03T07:01:44.610Z,75.00
2017-08-03T07:04:12.090Z,75.40
2017-08-03T07:06:39.928Z,75.50
2017-08-03T07:09:07.418Z,75.40
2017-08-03T07:11:34.897Z,75.40
2017-08-03T07:14:10.922Z,75.50
2017-08-03T07:16:41.619Z,75.40
2017-08-03T07:19:09.885Z,76.30
2017-08-03T07:21:37.361Z,75.30
2017-08-03T07:24:05.953Z,75.40
2017-08-03T07:26:40.867Z,75.60
2017-08-03T07:29:10.915Z,75.90
2017-08-03T07:31:42.321Z,75.50
2017-08-03T07:34:09.822Z,75.60
2017-08-03T07:36:38.353Z,75.70
2017-08-03T07:39:05.847Z,75.80
2017-08-03T07:41:34.173Z,75.60
2017-08-03T07:44:01.673Z,75.30
2017-08-03T07:46:29.940Z,75.40
2017-08-03T07:49:01.532Z,75.30
2017-08-03T07:51:30.788Z,75.70
2017-08-03T07:54:01.708Z,76.10
2017-08-03T07:56:29.198Z,76.40
2017-08-03T07:58:56.692Z,77.00
2017-08-03T08:01:24.182Z,77.30
2017-08-03T08:04:01.788Z,77.50
2017-08-03T08:06:29.591Z,78.00
2017-08-03T08:08:57.081Z,78.90
2017-08-03T08:11:30.826Z,78.50
2017-08-03T08:13:58.311Z,78.70
2017-08-03T08:16:32.188Z,79.70
2017-08-03T08:18:59.668Z,80.80
2017-08-03T08:21:30.317Z,81.20
2017-08-03T08:23:57.820Z,81.30
2017-08-03T08:26:31.282Z,81.60
2017-08-03T08:28:59.141Z,82.10
2017-08-03T08:31:26.625Z,81.80
2017-08-03T08:33:54.111Z,82.10
2017-08-03T08:36:21.612Z,82.00
2017-08-03T08:38:49.096Z,82.30
2017-08-03T08:41:16.930Z,82.40
2017-08-03T08:43:44.419Z,82.50
2017-08-03T08:46:11.913Z,82.40
2017-08-03T08:48:40.855Z,82.30
2017-08-03T08:51:08.384Z,82.30
2017-08-03T08:53:36.983Z,81.80
2017-08-03T08:56:10.488Z,81.80
2017-08-03T08:58:39.073Z,81.10
2017-08-03T09:01:06.566Z,81.00
2017-08-03T09:03:34.103Z,80.60
2017-08-03T09:06:01.600Z,80.60
2017-08-03T09:08:32.125Z,81.20
2017-08-03T09:10:59.883Z,80.40
2017-08-03T09:13:30.397Z,80.60
2017-08-03T09:15:57.873Z,80.70
2017-08-03T09:18:25.376Z,80.90
2017-08-03T09:21:00.042Z,80.90
2017-08-03T09:23:27.887Z,81.10
2017-08-03T09:26:01.403Z,81.10
2017-08-03T09:28:32.425Z,80.90
2017-08-03T09:30:59.910Z,80.60
2017-08-03T09:33:30.318Z,80.30
2017-08-03T09:35:57.816Z,79.80
2017-08-03T09:38:31.259Z,79.00
2017-08-03T09:40:59.528Z,78.80
2017-08-03T09:43:27.016Z,78.80
2017-08-03T09:46:01.244Z,78.60
2017-08-03T09:48:28.736Z,78.70
2017-08-03T09:51:02.580Z,78.50
2017-08-03T09:53:30.068Z,78.00
2017-08-03T09:55:57.567Z,77.10
2017-08-03T09:58:31.347Z,77.00
2017-08-03T10:00:58.839Z,76.50
2017-08-03T10:03:26.330Z,76.00
2017-08-03T10:06:00.259Z,76.00
2017-08-03T10:08:27.738Z,75.90
2017-08-03T10:10:55.359Z,75.40
2017-08-03T10:13:22.856Z,75.00
2017-08-03T10:15:50.663Z,74.90
2017-08-03T10:18:18.143Z,74.70
2017-08-03T10:20:45.644Z,75.50
2017-08-03T10:23:13.398Z,74.80
2017-08-03T10:25:40.892Z,74.00
2017-08-03T10:28:12.155Z,72.10
2017-08-03T10:30:40.420Z,70.80
2017-08-03T10:33:10.500Z,70.60
2017-08-03T10:35:41.393Z,70.50
2017-08-03T10:38:10.658Z,70.60
2017-08-03T10:40:38.248Z,70.20
2017-08-03T10:43:11.671Z,70.20
2017-08-03T10:45:39.151Z,69.90
2017-08-03T10:48:06.664Z,70.50
2017-08-03T10:50:34.160Z,70.40
2017-08-03T10:53:01.937Z,69.20
2017-08-03T10:55:29.423Z,69.20
2017-08-03T10:57:56.920Z,69.40
2017-08-03T11:00:30.418Z,69.50
2017-08-03T11:03:01.009Z,69.60
2017-08-03T11:05:28.508Z,68.80
2017-08-03T11:07:56.016Z,68.60
2017-08-03T11:10:30.495Z,68.30
2017-08-03T11:12:58.248Z,69.20
2017-08-03T11:15:31.683Z,68.40
2017-08-03T11:17:59.505Z,67.80
2017-08-03T11:20:32.875Z,66.80
2017-08-03T11:23:00.644Z,66.40
2017-08-03T11:25:28.142Z,66.50
2017-08-03T11:27:55.635Z,66.60
2017-08-03T11:30:23.139Z,63.90
2017-08-03T11:33:00.986Z,61.70
2017-08-03T11:35:28.483Z,59.90
2017-08-03T11:37:56.812Z,58.90
2017-08-03T11:40:24.595Z,58.80
2017-08-03T11:43:00.454Z,57.50
2017-08-03T11:45:28.228Z,56.00
2017-08-03T11:48:01.793Z,53.80
2017-08-03T11:50:29.550Z,53.00
2017-08-03T11:53:00.414Z,50.40
2017-08-03T11:55:28.671Z,45.70
2017-08-03T11:57:56.436Z,45.60
2017-08-03T12:00:23.933Z,43.80
2017-08-03T12:03:02.040Z,40.70
2017-08-03T12:05:29.533Z,39.00
2017-08-03T12:07:57.765Z,40.10
2017-08-03T12:10:25.269Z,38.70
2017-08-03T12:12:52.770Z,36.50
2017-08-03T12:15:22.476Z,34.60
2017-08-03T12:17:49.966Z,34.40
2017-08-03T12:20:18.287Z,33.30
2017-08-03T12:22:45.828Z,33.20
2017-08-03T12:25:15.113Z,33.20
2017-08-03T12:27:42.739Z,33.10
2017-08-03T12:30:11.192Z,32.40
2017-08-03T12:32:42.153Z,34.00
2017-08-03T12:35:10.368Z,34.30
2017-08-03T12:37:40.990Z,32.70
2017-08-03T12:40:08.482Z,32.00
2017-08-03T12:42:37.839Z,30.20
2017-08-03T12:45:05.673Z,30.00
2017-08-03T12:47:40.178Z,29.20
2017-08-03T12:50:08.048Z,29.40
2017-08-03T12:52:41.369Z,30.50
2017-08-03T12:55:09.142Z,31.20
2017-08-03T12:57:42.605Z,30.50
2017-08-03T13:00:10.465Z,28.60
2017-08-03T13:02:38.740Z,29.50
2017-08-03T13:05:06.227Z,29.50
2017-08-03T13:07:40.107Z,29.10
2017-08-03T13:10:10.819Z,29.10
2017-08-03T13:12:39.400Z,29.20
2017-08-03T13:15:06.929Z,29.10
2017-08-03T13:17:40.356Z,29.40
2017-08-03T13:20:10.961Z,29.10
2017-08-03T13:22:38.542Z,29.80
2017-08-03T13:25:12.016Z,29.20
2017-08-03T13:27:39.528Z,29.90
2017-08-03T13:30:07.022Z,29.10
2017-08-03T13:32:40.939Z,30.00
2017-08-03T13:35:08.426Z,29.70
2017-08-03T13:37:36.742Z,29.30
2017-08-03T13:40:10.424Z,29.20
2017-08-03T13:42:37.916Z,29.60
2017-08-03T13:45:11.961Z,30.90
2017-08-03T13:47:40.227Z,32.30
2017-08-03T13:50:11.443Z,32.20
2017-08-03T13:52:39.003Z,33.80
2017-08-03T13:55:12.459Z,35.10
2017-08-03T13:57:40.857Z,36.20
2017-08-03T14:00:08.383Z,37.00
2017-08-03T14:02:43.266Z,38.50
2017-08-03T14:05:10.764Z,38.40
2017-08-03T14:07:38.284Z,37.30
2017-08-03T14:10:11.938Z,37.90
2017-08-03T14:12:39.514Z,37.20
2017-08-03T14:15:07.051Z,37.00
2017-08-03T14:17:40.972Z,36.50
2017-08-03T14:20:09.258Z,36.90
2017-08-03T14:22:43.425Z,36.70
2017-08-03T14:25:10.942Z,37.20
2017-08-03T14:27:41.436Z,38.10
2017-08-03T14:30:08.947Z,38.30
2017-08-03T14:32:36.451Z,39.10
2017-08-03T14:35:04.255Z,40.40
2017-08-03T14:37:31.816Z,41.60
2017-08-03T14:39:59.316Z,42.30
2017-08-03T14:42:26.869Z,42.30
2017-08-03T14:44:54.356Z,43.00
2017-08-03T14:47:30.564Z,43.30
2017-08-03T14:50:01.143Z,43.40
2017-08-03T14:52:28.627Z,43.30
2017-08-03T14:55:00.438Z,43.40
2017-08-03T14:57:27.942Z,43.30
2017-08-03T15:00:02.395Z,43.90
2017-08-03T15:02:29.898Z,43.80
2017-08-03T15:05:00.732Z,43.80
2017-08-03T15:07:28.218Z,43.10
2017-08-03T15:09:56.485Z,43.40
2017-08-03T15:12:23.996Z,43.40
2017-08-03T15:14:51.508Z,43.00
2017-08-03T15:17:18.987Z,43.50
2017-08-03T15:19:48.768Z,44.80
2017-08-03T15:22:16.246Z,45.10
2017-08-03T15:24:53.695Z,45.70
2017-08-03T15:27:21.184Z,45.80
2017-08-03T15:29:50.764Z,45.50
2017-08-03T15:32:21.380Z,45.50
2017-08-03T15:34:51.794Z,46.30
2017-08-03T15:37:19.640Z,46.40
2017-08-03T15:39:47.131Z,46.40
2017-08-03T15:42:14.615Z,46.80
2017-08-03T15:44:42.135Z,45.80
2017-08-03T15:47:12.090Z,45.20
2017-08-03T15:49:40.512Z,46.60
2017-08-03T15:52:12.598Z,46.30
2017-08-03T15:54:40.902Z,46.30
2017-08-03T15:57:12.921Z,46.20
2017-08-03T15:59:51.445Z,47.10
2017-08-03T16:02:26.789Z,47.00
2017-08-03T16:05:01.596Z,48.70
2017-08-03T16:07:29.118Z,48.00
2017-08-03T16:10:02.883Z,48.60
2017-08-03T16:12:30.383Z,48.60
2017-08-03T16:14:57.869Z,48.60
2017-08-03T16:17:26.183Z,48.00
2017-08-03T16:20:00.955Z,48.00
2017-08-03T16:22:29.229Z,48.50
2017-08-03T16:24:56.722Z,48.40
2017-08-03T16:27:31.097Z,48.60
2017-08-03T16:30:01.632Z,49.30
2017-08-03T16:32:32.673Z,49.40
2017-08-03T16:35:00.869Z,48.60
2017-08-03T16:37:32.783Z,48.70
2017-08-03T16:40:01.062Z,48.60
2017-08-03T16:42:28.564Z,48.40
2017-08-03T16:44:56.840Z,48.90
2017-08-03T16:47:30.688Z,48.80
2017-08-03T16:50:02.042Z,49.10
2017-08-03T16:52:29.532Z,48.60
2017-08-03T16:55:00.673Z,48.70
2017-08-03T16:57:31.231Z,48.80
2017-08-03T16:59:58.732Z,49.30
2017-08-03T17:02:26.520Z,49.50
2017-08-03T17:04:54.003Z,48.50
2017-08-03T17:07:22.267Z,47.70
2017-08-03T17:09:51.387Z,47.60
2017-08-03T17:12:20.802Z,48.30
2017-08-03T17:14:51.614Z,48.50
2017-08-03T17:17:19.104Z,48.60
2017-08-03T17:19:50.368Z,49.00
2017-08-03T17:22:18.159Z,49.40
2017-08-03T17:24:45.768Z,49.30
2017-08-03T17:27:20.226Z,49.60
2017-08-03T17:29:47.725Z,50.10
2017-08-03T17:32:21.266Z,50.10
2017-08-03T17:34:51.995Z,49.90
2017-08-03T17:37:19.492Z,50.30
2017-08-03T17:39:50.657Z,50.50
2017-08-03T17:42:21.921Z,50.60
2017-08-03T17:44:50.882Z,50.90
2017-08-03T17:47:22.263Z,51.50
2017-08-03T17:49:50.996Z,51.70
2017-08-03T17:52:20.352Z,52.10
2017-08-03T17:54:47.861Z,52.50
2017-08-03T17:57:21.511Z,52.60
2017-08-03T17:59:49.016Z,52.60
2017-08-03T18:02:22.688Z,52.00
2017-08-03T18:04:51.214Z,52.10
2017-08-03T18:07:21.734Z,52.60
2017-08-03T18:09:49.249Z,52.80
2017-08-03T18:12:16.754Z,53.10
2017-08-03T18:14:50.837Z,53.20
2017-08-03T18:17:18.325Z,53.40
2017-08-03T18:19:51.948Z,53.50
2017-08-03T18:22:20.502Z,53.30
2017-08-03T18:24:52.580Z,51.80
2017-08-03T18:27:20.819Z,51.80
2017-08-03T18:29:48.308Z,51.80
2017-08-03T18:32:21.703Z,52.30
2017-08-03T18:34:50.499Z,51.70
2017-08-03T18:37:21.314Z,51.30
2017-08-03T18:39:50.445Z,51.30
2017-08-03T18:42:17.930Z,51.30
2017-08-03T18:44:51.472Z,51.10
2017-08-03T18:47:18.969Z,52.00
2017-08-03T18:49:52.422Z,51.20
2017-08-03T18:52:19.938Z,51.70
2017-08-03T18:54:47.752Z,51.20
2017-08-03T18:57:15.241Z,51.30
2017-08-03T18:59:51.163Z,51.40
2017-08-03T19:02:18.657Z,51.50
2017-08-03T19:07:27.771Z,51.60
2017-08-03T19:09:55.267Z,52.20
2017-08-03T19:12:30.601Z,52.30
2017-08-03T19:14:58.094Z,52.40
2017-08-03T19:17:33.041Z,52.60
2017-08-03T19:20:00.548Z,52.50
2017-08-03T19:22:28.843Z,52.70
2017-08-03T19:24:56.657Z,52.90
2017-08-03T19:27:24.149Z,52.80
2017-08-03T19:30:00.844Z,53.00
2017-08-03T19:32:28.327Z,52.90
2017-08-03T19:34:55.820Z,52.90
2017-08-03T19:37:23.578Z,53.20
2017-08-03T19:40:00.893Z,53.00
2017-08-03T19:42:28.758Z,53.10
2017-08-03T19:45:02.119Z,53.00
2017-08-03T19:47:31.323Z,53.00
2017-08-03T19:50:00.523Z,53.10
2017-08-03T19:52:31.468Z,53.20
2017-08-03T19:54:59.010Z,53.50
2017-08-03T19:57:26.507Z,53.60
2017-08-03T19:59:54.029Z,53.60
2017-08-03T20:02:21.601Z,54.10
2017-08-03T20:04:49.456Z,54.40
2017-08-03T20:07:31.894Z,54.50
2017-08-03T20:09:59.732Z,54.90
2017-08-03T20:12:27.314Z,55.00
2017-08-03T20:14:54.815Z,55.20
2017-08-03T20:17:22.317Z,55.40
2017-08-03T20:19:49.815Z,56.10
2017-08-03T20:22:21.007Z,56.20
2017-08-03T20:24:52.204Z,56.00
2017-08-03T20:27:21.174Z,55.90
2017-08-03T20:29:48.718Z,56.00
2017-08-03T20:32:16.248Z,56.20
2017-08-03T20:34:43.754Z,56.30
2017-08-03T20:37:11.240Z,56.60
2017-08-03T20:39:39.003Z,56.60
2017-08-03T20:42:06.647Z,56.90
2017-08-03T20:44:34.134Z,57.10
2017-08-03T20:47:11.708Z,57.20
2017-08-03T20:49:42.212Z,57.20
2017-08-03T20:52:09.716Z,57.20
2017-08-03T20:54:37.228Z,57.20
2017-08-03T20:57:10.594Z,57.30
2017-08-03T20:59:38.848Z,57.30
2017-08-03T21:02:06.652Z,57.10
2017-08-03T21:04:40.399Z,57.40
2017-08-03T21:07:08.214Z,57.50
2017-08-03T21:09:35.696Z,57.60
2017-08-03T21:12:03.239Z,57.70
2017-08-03T21:14:31.028Z,57.80
2017-08-03T21:16:58.531Z,57.90
2017-08-03T21:19:26.042Z,57.90
2017-08-03T21:21:53.579Z,57.90
2017-08-03T21:24:31.193Z,58.00
2017-08-03T21:27:02.213Z,58.10
2017-08-03T21:29:29.711Z,58.10
2017-08-03T21:31:57.253Z,58.20
2017-08-03T21:34:24.774Z,58.30
2017-08-03T21:37:00.720Z,58.40
2017-08-03T21:39:28.226Z,58.40
2017-08-03T21:42:01.923Z,58.50
2017-08-03T21:44:29.774Z,58.60
2017-08-03T21:46:57.267Z,58.70
2017-08-03T21:49:30.847Z,58.70
2017-08-03T21:51:58.406Z,59.00
2017-08-03T21:54:25.913Z,59.00
2017-08-03T21:56:53.678Z,59.20
2017-08-03T21:59:31.043Z,59.20
2017-08-03T22:01:58.835Z,59.50
2017-08-03T22:04:26.440Z,59.50
2017-08-03T22:07:01.049Z,59.60
2017-08-03T22:09:28.545Z,59.70
2017-08-03T22:12:02.268Z,59.70
2017-08-03T22:14:29.775Z,59.90
2017-08-03T22:17:01.734Z,60.00
2017-08-03T22:19:30.028Z,60.20
2017-08-03T22:21:57.580Z,60.20
2017-08-03T22:24:25.099Z,60.40
2017-08-03T22:26:52.583Z,60.50
2017-08-03T22:29:31.759Z,61.00
2017-08-03T22:31:59.236Z,60.80
2017-08-03T22:34:32.944Z,61.10
2017-08-03T22:37:00.536Z,61.30
2017-08-03T22:39:28.792Z,61.70
2017-08-03T22:41:56.398Z,61.70
2017-08-03T22:44:23.978Z,61.90
2017-08-03T22:46:51.743Z,62.00
2017-08-03T22:49:19.282Z,62.30
2017-08-03T22:51:53.039Z,62.40
2017-08-03T22:54:20.639Z,62.60
2017-08-03T22:56:51.129Z,63.00
2017-08-03T22:59:18.891Z,63.00
2017-08-03T23:01:52.351Z,63.20
2017-08-03T23:04:21.328Z,63.50
2017-08-03T23:06:50.654Z,63.80
2017-08-03T23:09:21.558Z,63.80
2017-08-03T23:11:49.110Z,64.00
2017-08-03T23:14:17.368Z,64.00
2017-08-03T23:16:50.704Z,64.00
2017-08-03T23:19:18.257Z,64.20
2017-08-03T23:21:51.981Z,64.30
2017-08-03T23:24:19.458Z,64.40
2017-08-03T23:26:53.186Z,64.50
2017-08-03T23:29:20.676Z,64.80
2017-08-03T23:31:51.235Z,64.80
2017-08-03T23:34:19.075Z,64.90
2017-08-03T23:36:46.670Z,65.00
2017-08-03T23:39:14.205Z,65.10
2017-08-03T23:41:41.699Z,65.20
2017-08-03T23:44:09.199Z,65.20
2017-08-03T23:46:37.468Z,65.50
2017-08-03T23:49:05.776Z,65.70
2017-08-03T23:51:33.633Z,65.60
2017-08-03T23:54:01.212Z,65.80
2017-08-03T23:56:28.716Z,65.80
2017-08-03T23:58:56.515Z,65.80
